Provo Municipal Airport
KPVU : rendu visible

Aérodrome :











RETROUVEZ-NOUS SUR...

 
LOGIN :

S'inscrire | Disclaimer

   EN    FR    IT 

 









Légende :    VFR   VFR Marginal   IFR   IFR Intensif   IFR Très Intensif
Visi : 
Plafond : 
>= 8 km
>= 3000ft
5 à 8 km
1000 à 3000 ft
1500m à 5 km
500 à 1000 ft
800 à 1500m
200 à 500 ft
< 800m
< 200 ft
Symboles :   Orages  Brouillard  Fortes neiges  Fortes précipitations  Vent > 20 kt






- Altitude de l'aérodrome : 4497 ft


KPVU - Provo Municipal

DERNIER METAR :
  • 310756Z AUTO 16015KT 10SM CLR 22/09 A2992 RMK AO2 SLP061 T02220089

METARs EXPIRÉS :
  • 310656Z AUTO 11005KT 10SM CLR 22/09 A2992 RMK AO2 SLP062 T02220089 403560217
  • 310556Z AUTO 17010KT 10SM FEW120 23/08 A2992 RMK AO2 SLP062 60000 T02330083 10283 20222 58001

TAF KPVU
Valide du 31 à 06h jusqu'au 01 à 06h UTC


310533Z 3106/0106 14006KT P6SM SCT200
FM311700 22010KT P6SM SCT200
FIR KZLC / Amérique du Nord



MET'MAP, la Météo Aéronautique d'un coup d'oeil ! - Copyright ORBIFLY Décembre 2007 - Disclaimer

ORBIFLY MET'MAP TEAM :

Programmation & Développement : Alexandra Zaïnal
Sur une idée originale de : Baudouin d'Aumeries
Assistance à la programmation : Marc-Olivier Méhu
Soutien technique & logistique : Manuel Goepfert

Contact : metmap@orbifly.com




SOURCES & CREDITS :

   NOAA       Earth
Advisory